createdAt,value
2022-12-09T00:02:00.895Z,-11149.81
2022-12-09T00:05:07.995Z,-11151.34
2022-12-09T00:08:14.896Z,-11147.13
2022-12-09T00:11:23.740Z,-11140.81
2022-12-09T00:14:30.018Z,-11143.34
2022-12-09T00:17:36.242Z,-11128.59
2022-12-09T00:20:42.559Z,-11132.38
2022-12-09T00:23:49.471Z,-11128.59
2022-12-09T00:26:58.202Z,-11125.66
2022-12-09T00:30:05.610Z,-11124.25
2022-12-09T00:33:12.089Z,-11134.91
2022-12-09T00:36:20.724Z,-11140.69
2022-12-09T00:39:27.075Z,-11143.50
2022-12-09T00:42:34.870Z,-11128.88
2022-12-09T00:45:40.936Z,-11123.81
2022-12-09T00:48:47.658Z,-11135.06
2022-12-09T00:51:54.286Z,-11136.03
2022-12-09T00:55:00.413Z,-11137.72
2022-12-09T00:58:07.920Z,-11136.88
2022-12-09T01:01:14.216Z,-11131.97
2022-12-09T01:04:20.385Z,-11132.09
2022-12-09T01:07:26.684Z,-11125.22
2022-12-09T01:10:34.388Z,-11136.31
2022-12-09T01:13:41.832Z,-11133.50
2022-12-09T01:16:48.662Z,-11134.06
2022-12-09T01:19:55.148Z,-11128.75
2022-12-09T01:23:01.771Z,-11128.19
2022-12-09T01:26:09.243Z,-11124.94
2022-12-09T01:29:17.457Z,-11121.28
2022-12-09T01:32:24.182Z,-11120.03
2022-12-09T01:35:30.503Z,-11117.38
2022-12-09T01:38:37.266Z,-11107.69
2022-12-09T01:41:44.170Z,-11105.28
2022-12-09T01:45:38.020Z,-11105.00
2022-12-09T01:48:47.929Z,-11097.00
2022-12-09T01:52:01.652Z,-11093.50
2022-12-09T01:55:08.630Z,-11089.13
2022-12-09T01:58:16.146Z,-11099.53
2022-12-09T02:01:23.797Z,-11085.75
2022-12-09T02:04:33.613Z,-11086.59
2022-12-09T02:07:40.342Z,-11086.03
2022-12-09T02:10:57.070Z,-11087.44
2022-12-09T02:14:10.759Z,-11085.63
2022-12-09T02:17:31.467Z,-11081.84
2022-12-09T02:20:42.239Z,-11096.56
2022-12-09T02:23:54.934Z,-11098.97
2022-12-09T02:27:07.662Z,-11104.31
2022-12-09T02:30:17.223Z,-11096.72
2022-12-09T02:33:37.298Z,-11084.78
2022-12-09T02:36:55.902Z,-11092.22
2022-12-09T02:40:07.143Z,-11083.22
2022-12-09T02:43:15.402Z,-11079.44
2022-12-09T02:46:23.464Z,-11082.41
2022-12-09T02:49:31.942Z,-11077.91
2022-12-09T02:52:40.823Z,-11079.03
2022-12-09T02:55:49.177Z,-11082.69
2022-12-09T02:58:55.834Z,-11081.56
2022-12-09T03:02:14.013Z,-11090.81
2022-12-09T03:05:25.107Z,-11089.00
2022-12-09T03:08:43.949Z,-11097.28
2022-12-09T03:11:52.559Z,-11105.56
2022-12-09T03:15:00.890Z,-11097.00
2022-12-09T03:18:12.794Z,-11079.03
2022-12-09T03:21:22.979Z,-11074.25
2022-12-09T03:24:36.360Z,-11091.94
2022-12-09T03:27:48.676Z,-11091.94
2022-12-09T03:30:58.009Z,-11096.44
2022-12-09T03:34:07.767Z,-11093.78
2022-12-09T03:37:16.882Z,-11088.84
2022-12-09T03:40:28.937Z,-11090.81
2022-12-09T03:43:39.475Z,-11100.66
2022-12-09T03:46:45.951Z,-11102.34
2022-12-09T03:49:52.675Z,-11101.91
2022-12-09T03:53:04.463Z,-11101.50
2022-12-09T03:56:19.273Z,-11101.34
2022-12-09T03:59:30.030Z,-11105.72
2022-12-09T04:02:36.923Z,-11096.72
2022-12-09T04:05:43.876Z,-11090.97
2022-12-09T04:08:50.280Z,-11086.75
2022-12-09T04:11:58.110Z,-11096.44
2022-12-09T04:15:04.190Z,-11085.75
2022-12-09T04:18:10.770Z,-11082.41
2022-12-09T04:21:17.112Z,-11080.44
2022-12-09T04:24:23.463Z,-11092.78
2022-12-09T04:27:31.340Z,-11102.91
2022-12-09T04:30:37.791Z,-11107.97
2022-12-09T04:33:46.461Z,-11105.44
2022-12-09T04:36:52.832Z,-11106.00
2022-12-09T04:39:59.139Z,-11112.16
2022-12-09T04:43:06.887Z,-11111.31
2022-12-09T04:46:15.413Z,-11111.03
2022-12-09T04:49:21.672Z,-11108.22
2022-12-09T04:52:28.261Z,-11099.81
2022-12-09T04:55:34.876Z,-11104.44
2022-12-09T04:58:44.278Z,-11100.38
2022-12-09T05:01:50.310Z,-11114.69
2022-12-09T05:04:56.870Z,-11116.38
2022-12-09T05:08:03.218Z,-11112.88
2022-12-09T05:11:10.180Z,-11107.53
2022-12-09T05:14:18.160Z,-11111.03
2022-12-09T05:17:20.355Z,-11109.06
2022-12-09T05:20:29.885Z,-11117.09
2022-12-09T05:23:37.511Z,-11110.63
2022-12-09T05:26:43.612Z,-11111.31
2022-12-09T05:29:51.538Z,-11115.81
2022-12-09T05:32:57.744Z,-11113.56
2022-12-09T05:36:05.537Z,-11110.63
2022-12-09T05:39:11.591Z,-11115.81
2022-12-09T05:42:17.746Z,-11124.66
2022-12-09T05:45:25.826Z,-11125.38
2022-12-09T05:48:32.605Z,-11127.63
2022-12-09T05:51:39.252Z,-11134.06
2022-12-09T05:54:46.014Z,-11131.81
2022-12-09T05:57:53.273Z,-11130.41
2022-12-09T06:01:07.195Z,-11129.59
2022-12-09T06:04:13.929Z,-11134.78
2022-12-09T06:07:20.711Z,-11125.94
2022-12-09T06:10:27.362Z,-11129.44
2022-12-09T06:13:34.208Z,-11128.31
2022-12-09T06:16:42.402Z,-11131.81
2022-12-09T06:19:49.096Z,-11132.38
2022-12-09T06:22:55.361Z,-11133.66
2022-12-09T06:26:02.314Z,-11137.31
2022-12-09T06:29:08.735Z,-11141.66
2022-12-09T06:32:16.536Z,-11142.22
2022-12-09T06:35:23.127Z,-11145.59
2022-12-09T06:38:30.150Z,-11145.19
2022-12-09T06:41:36.873Z,-11148.81
2022-12-09T06:44:43.243Z,-11152.75
2022-12-09T06:47:50.777Z,-11157.13
2022-12-09T06:50:57.455Z,-11151.63
2022-12-09T06:54:04.478Z,-11163.72
2022-12-09T06:57:10.900Z,-11160.63
2022-12-09T07:00:18.391Z,-11156.00
2022-12-09T07:03:26.289Z,-11159.94
2022-12-09T07:06:36.246Z,-11162.88
2022-12-09T07:09:42.780Z,-11158.53
2022-12-09T07:12:48.937Z,-11162.47
2022-12-09T07:15:55.380Z,-11165.28
2022-12-09T07:19:03.404Z,-11169.22
2022-12-09T07:22:09.726Z,-11168.37
2022-12-09T07:25:16.389Z,-11170.34
2022-12-09T07:28:23.324Z,-11168.09
2022-12-09T07:31:30.971Z,-11170.06
2022-12-09T07:34:39.073Z,-11170.06
2022-12-09T07:37:45.751Z,-11176.22
2022-12-09T07:40:52.819Z,-11176.50
2022-12-09T07:43:59.800Z,-11175.94
2022-12-09T07:47:06.438Z,-11171.75
2022-12-09T07:50:14.972Z,-11178.75
2022-12-09T07:53:21.679Z,-11179.88
2022-12-09T07:56:29.225Z,-11173.44
2022-12-09T07:59:36.083Z,-11179.31
2022-12-09T08:02:42.774Z,-11181.16
2022-12-09T08:05:51.667Z,-11177.78
2022-12-09T08:09:00.724Z,-11181.44
2022-12-09T08:12:07.698Z,-11180.03
2022-12-09T08:15:14.847Z,-11181.28
2022-12-09T08:18:21.596Z,-11180.16
2022-12-09T08:21:31.871Z,-11183.97
2022-12-09T08:24:38.381Z,-11190.28
2022-12-09T08:27:44.859Z,-11187.63
2022-12-09T08:30:52.111Z,-11189.72
2022-12-09T08:33:58.763Z,-11191.97
2022-12-09T08:37:06.787Z,-11183.13
2022-12-09T08:40:14.481Z,-11183.41
2022-12-09T08:43:21.459Z,-11185.09
2022-12-09T08:46:27.894Z,-11183.53
2022-12-09T08:49:34.797Z,-11179.59
2022-12-09T08:52:43.710Z,-11183.53
2022-12-09T08:55:50.310Z,-11186.34
2022-12-09T08:58:57.382Z,-11188.03
2022-12-09T09:02:04.095Z,-11185.38
2022-12-09T09:05:11.584Z,-11192.81
2022-12-09T09:08:19.786Z,-11191.97
2022-12-09T09:11:27.023Z,-11193.81
2022-12-09T09:14:34.172Z,-11190.00
2022-12-09T09:17:42.765Z,-11195.63
2022-12-09T09:20:53.823Z,-11194.50
2022-12-09T09:24:02.360Z,-11192.53
2022-12-09T09:27:08.958Z,-11196.19
2022-12-09T09:30:16.068Z,-11204.91
2022-12-09T09:33:22.545Z,-11198.72
2022-12-09T09:36:28.998Z,-11199.44
2022-12-09T09:39:36.950Z,-11202.25
2022-12-09T09:42:49.895Z,-11200.13
2022-12-09T09:45:59.489Z,-11207.72
2022-12-09T09:49:09.451Z,-11212.38
2022-12-09T09:52:19.180Z,-11209.97
2022-12-09T09:55:36.084Z,-11204.06
2022-12-09T09:58:51.117Z,-11205.47
2022-12-09T10:02:09.802Z,-11214.47
2022-12-09T10:05:24.198Z,-11209.97
2022-12-09T10:08:37.909Z,-11212.22
2022-12-09T10:11:57.203Z,-11217.16
2022-12-09T10:15:11.856Z,-11209.00
2022-12-09T10:18:25.973Z,-11216.59
2022-12-09T10:21:34.093Z,-11217.84
2022-12-09T10:24:49.417Z,-11224.88
2022-12-09T10:28:03.108Z,-11217.00
2022-12-09T10:31:12.697Z,-11217.16
2022-12-09T10:34:19.417Z,-11215.75
2022-12-09T10:37:32.138Z,-11214.47
2022-12-09T10:40:50.512Z,-11226.56
2022-12-09T10:44:19.681Z,-11221.09
2022-12-09T10:47:28.566Z,-11225.31
2022-12-09T10:50:38.027Z,-11223.19
2022-12-09T10:53:50.413Z,-11216.44
2022-12-09T10:57:09.679Z,-11222.91
2022-12-09T11:00:29.598Z,-11229.37
2022-12-09T11:03:42.450Z,-11237.69
2022-12-09T11:06:55.628Z,-11237.28
2022-12-09T11:10:18.041Z,-11241.19
2022-12-09T11:13:40.569Z,-11237.56
2022-12-09T11:16:48.278Z,-11230.66
2022-12-09T11:19:56.942Z,-11224.88
2022-12-09T11:23:07.379Z,-11235.72
2022-12-09T11:29:49.535Z,-11245.72
2022-12-09T11:33:24.471Z,-11244.44
2022-12-09T11:36:35.406Z,-11233.47
2022-12-09T11:39:51.345Z,-11233.03
2022-12-09T11:42:58.755Z,-11245.72
2022-12-09T11:46:18.303Z,-11240.78
2022-12-09T11:49:27.207Z,-11242.59
2022-12-09T11:52:33.287Z,-11233.19
2022-12-09T11:55:45.423Z,-11222.22
2022-12-09T11:58:59.121Z,-11234.88
2022-12-09T12:02:14.623Z,-11243.75
2022-12-09T12:05:25.211Z,-11233.19
2022-12-09T12:08:38.628Z,-11235.03
2022-12-09T12:11:56.419Z,-11240.91
2022-12-09T12:15:11.494Z,-11244.03
2022-12-09T12:18:21.374Z,-11237.56
2022-12-09T12:21:47.409Z,-11239.78
2022-12-09T12:25:11.083Z,-11238.09
2022-12-09T12:28:38.382Z,-11238.09
2022-12-09T12:32:21.259Z,-11244.59
2022-12-09T12:35:47.687Z,-11250.50
2022-12-09T12:39:07.293Z,-11247.69
2022-12-09T12:42:25.723Z,-11242.31
2022-12-09T12:45:58.152Z,-11244.03
2022-12-09T12:49:25.608Z,-11240.22
2022-12-09T12:52:57.762Z,-11233.03
2022-12-09T12:56:10.067Z,-11240.06
2022-12-09T12:59:24.173Z,-11225.72
2022-12-09T13:02:42.379Z,-11234.19
2022-12-09T13:05:51.949Z,-11234.19
2022-12-09T13:09:03.544Z,-11239.78
2022-12-09T13:12:16.956Z,-11243.19
2022-12-09T13:15:26.831Z,-11233.31
2022-12-09T13:18:37.683Z,-11236.28
2022-12-09T13:21:45.720Z,-11243.19
2022-12-09T13:25:01.613Z,-11241.19
2022-12-09T13:28:12.083Z,-11238.38
2022-12-09T13:31:22.168Z,-11233.59
2022-12-09T13:34:36.946Z,-11228.41
2022-12-09T13:38:01.433Z,-11220.94
2022-12-09T13:42:00.230Z,-11224.59
2022-12-09T13:45:16.189Z,-11231.22
2022-12-09T13:48:55.566Z,-11233.03
2022-12-09T13:52:01.616Z,-11238.38
2022-12-09T13:55:20.664Z,-11232.06
2022-12-09T13:58:56.784Z,-11235.59
2022-12-09T14:02:15.073Z,-11227.97
2022-12-09T14:05:25.048Z,-11223.47
2022-12-09T14:08:37.513Z,-11223.62
2022-12-09T14:11:48.468Z,-11228.81
2022-12-09T14:14:54.957Z,-11230.50
2022-12-09T14:18:05.314Z,-11228.97
2022-12-09T14:21:29.077Z,-11228.81
2022-12-09T14:24:36.844Z,-11229.81
2022-12-09T14:28:24.411Z,-11230.78
2022-12-09T14:32:03.648Z,-11235.59
2022-12-09T14:35:30.186Z,-11233.19
2022-12-09T14:42:23.933Z,-11230.94
2022-12-09T14:45:34.419Z,-11231.34
2022-12-09T14:48:42.181Z,-11222.22
2022-12-09T14:51:51.405Z,-11225.44
2022-12-09T14:54:59.572Z,-11233.59
2022-12-09T14:58:06.390Z,-11230.66
2022-12-09T15:01:12.429Z,-11233.03
2022-12-09T15:04:24.915Z,-11229.94
2022-12-09T15:07:33.726Z,-11227.13
2022-12-09T15:10:40.208Z,-11226.84
2022-12-09T15:13:48.771Z,-11227.69
2022-12-09T15:16:56.637Z,-11229.94
2022-12-09T15:20:04.284Z,-11234.31
2022-12-09T15:23:23.533Z,-11234.88
2022-12-09T15:26:32.331Z,-11234.03
2022-12-09T15:29:38.362Z,-11234.59
2022-12-09T15:32:46.382Z,-11231.34
2022-12-09T15:35:56.628Z,-11234.19
2022-12-09T15:39:07.433Z,-11229.94
2022-12-09T15:42:18.156Z,-11231.63
2022-12-09T15:45:28.296Z,-11227.84
2022-12-09T15:48:38.537Z,-11226.84
2022-12-09T15:51:47.128Z,-11221.78
2022-12-09T15:54:55.598Z,-11222.91
2022-12-09T15:58:06.258Z,-11224.88
2022-12-09T16:01:21.097Z,-11220.94
2022-12-09T16:04:31.522Z,-11225.72
2022-12-09T16:07:38.249Z,-11222.34
2022-12-09T16:10:50.985Z,-11229.09
2022-12-09T16:14:01.451Z,-11225.72
2022-12-09T16:17:08.322Z,-11223.75
2022-12-09T16:20:23.621Z,-11223.75
2022-12-09T16:23:30.393Z,-11220.94
2022-12-09T16:26:40.810Z,-11223.06
2022-12-09T16:29:51.377Z,-11218.13
2022-12-09T16:32:59.583Z,-11221.09
2022-12-09T16:36:07.904Z,-11212.78
2022-12-09T16:39:38.253Z,-11214.34
2022-12-09T16:42:46.102Z,-11217.56
2022-12-09T16:45:54.534Z,-11216.31
2022-12-09T16:49:05.093Z,-11221.94
2022-12-09T16:52:13.757Z,-11218.97
2022-12-09T16:55:25.869Z,-11222.06
2022-12-09T16:58:35.693Z,-11216.88
2022-12-09T17:01:44.069Z,-11213.91
2022-12-09T17:04:52.308Z,-11212.78
2022-12-09T17:07:58.968Z,-11223.34
2022-12-09T17:11:05.394Z,-11215.88
2022-12-09T17:14:13.141Z,-11210.53
2022-12-09T17:17:19.837Z,-11217.72
2022-12-09T17:20:26.064Z,-11223.91
2022-12-09T17:23:39.196Z,-11217.00
2022-12-09T17:26:46.288Z,-11225.03
2022-12-09T17:29:54.126Z,-11226.72
2022-12-09T17:33:00.679Z,-11227.56
2022-12-09T17:36:07.905Z,-11227.69
2022-12-09T17:39:15.120Z,-11226.28
2022-12-09T17:42:21.580Z,-11223.75
2022-12-09T17:45:29.529Z,-11211.66
2022-12-09T17:48:37.044Z,-11215.03
2022-12-09T17:51:43.395Z,-11220.94
2022-12-09T17:54:49.747Z,-11227.97
2022-12-09T17:57:56.080Z,-11228.41
2022-12-09T18:01:04.051Z,-11228.25
2022-12-09T18:04:12.142Z,-11221.66
2022-12-09T18:07:18.226Z,-11218.97
2022-12-09T18:10:24.505Z,-11232.47
2022-12-09T18:13:31.072Z,-11232.75
2022-12-09T18:16:39.399Z,-11236.44
2022-12-09T18:19:45.658Z,-11233.59
2022-12-09T18:22:52.155Z,-11230.22
2022-12-09T18:25:58.543Z,-11225.88
2022-12-09T18:29:05.195Z,-11236.28
2022-12-09T18:32:12.483Z,-11242.31
2022-12-09T18:35:18.591Z,-11240.78
2022-12-09T18:38:24.717Z,-11240.63
2022-12-09T18:41:32.742Z,-11242.31
2022-12-09T18:44:38.902Z,-11244.72
2022-12-09T18:47:46.411Z,-11245.72
2022-12-09T18:50:52.554Z,-11244.31
2022-12-09T18:53:59.214Z,-11244.88
2022-12-09T18:57:05.735Z,-11243.31
2022-12-09T19:00:13.286Z,-11243.75
2022-12-09T19:03:21.140Z,-11242.03
2022-12-09T19:06:29.348Z,-11238.66
2022-12-09T19:09:37.469Z,-11237.00
2022-12-09T19:12:49.717Z,-11239.94
2022-12-09T19:16:00.106Z,-11246.41
2022-12-09T19:19:10.388Z,-11248.66
2022-12-09T19:22:17.204Z,-11242.59
2022-12-09T19:25:23.694Z,-11243.47
2022-12-09T19:28:30.056Z,-11244.59
2022-12-09T19:31:39.353Z,-11241.47
2022-12-09T19:34:46.908Z,-11235.88
2022-12-09T19:37:58.005Z,-11228.13
2022-12-09T19:41:08.484Z,-11218.84
2022-12-09T19:44:31.012Z,-11213.06
2022-12-09T19:47:42.670Z,-11207.72
2022-12-09T19:50:50.037Z,-11213.22
2022-12-09T19:53:57.985Z,-11221.78
2022-12-09T19:57:03.986Z,-11226.16
2022-12-09T20:00:12.543Z,-11218.00
2022-12-09T20:03:18.659Z,-11206.88
2022-12-09T20:06:26.235Z,-11207.16
2022-12-09T20:09:32.574Z,-11212.09
2022-12-09T20:12:39.213Z,-11220.25
2022-12-09T20:15:45.583Z,-11224.31
2022-12-09T20:18:52.557Z,-11225.88
2022-12-09T20:22:00.458Z,-11219.53
2022-12-09T20:25:07.150Z,-11221.50
2022-12-09T20:28:13.504Z,-11224.47
2022-12-09T20:31:22.432Z,-11227.13
2022-12-09T20:34:28.917Z,-11222.06
2022-12-09T20:37:36.751Z,-11217.56
2022-12-09T20:40:43.212Z,-11222.63
2022-12-09T20:43:51.069Z,-11227.13
2022-12-09T20:46:57.424Z,-11225.16
2022-12-09T20:50:03.570Z,-11226.28
2022-12-09T20:53:11.210Z,-11220.66
2022-12-09T20:56:18.817Z,-11225.44
2022-12-09T20:59:25.399Z,-11231.34
2022-12-09T21:02:38.555Z,-11225.88
2022-12-09T21:05:44.686Z,-11224.19
2022-12-09T21:08:53.906Z,-11228.81
2022-12-09T21:12:00.443Z,-11229.25
2022-12-09T21:15:07.896Z,-11224.31
2022-12-09T21:18:14.072Z,-11217.16
2022-12-09T21:21:21.424Z,-11219.53
2022-12-09T21:24:28.949Z,-11219.81
2022-12-09T21:27:35.014Z,-11222.78
2022-12-09T21:30:41.245Z,-11226.72
2022-12-09T21:33:49.260Z,-11226.56
2022-12-09T21:36:55.700Z,-11228.53
2022-12-09T21:40:03.444Z,-11229.37
2022-12-09T21:43:09.564Z,-11223.19
2022-12-09T21:46:19.119Z,-11224.03
2022-12-09T21:49:25.989Z,-11222.91
2022-12-09T21:52:34.953Z,-11224.59
2022-12-09T21:55:43.316Z,-11227.28
2022-12-09T21:58:51.181Z,-11228.13
2022-12-09T22:01:57.739Z,-11220.81
2022-12-09T22:05:04.030Z,-11220.09
2022-12-09T22:08:10.196Z,-11221.22
2022-12-09T22:11:21.170Z,-11221.66
2022-12-09T22:14:27.472Z,-11228.25
2022-12-09T22:17:33.662Z,-11226.84
2022-12-09T22:21:23.746Z,-11232.75
2022-12-09T22:24:09.412Z,-11225.44
2022-12-09T22:27:16.910Z,-11212.50
2022-12-09T22:30:23.148Z,-11214.47
2022-12-09T22:33:29.985Z,-11228.25
2022-12-09T22:36:37.224Z,-11228.41
2022-12-09T22:39:43.326Z,-11230.66
2022-12-09T22:42:51.465Z,-11226.28
2022-12-09T22:45:58.078Z,-11230.50
2022-12-09T22:49:07.796Z,-11221.78
2022-12-09T22:52:14.583Z,-11219.13
2022-12-09T22:55:20.692Z,-11218.13
2022-12-09T22:58:29.144Z,-11214.06
2022-12-09T23:01:37.578Z,-11222.06
2022-12-09T23:04:43.870Z,-11218.13
2022-12-09T23:07:50.063Z,-11218.13
2022-12-09T23:10:56.392Z,-11211.53
2022-12-09T23:14:06.919Z,-11206.59
2022-12-09T23:17:13.178Z,-11215.59
2022-12-09T23:20:19.784Z,-11220.25
2022-12-09T23:23:26.036Z,-11223.75
2022-12-09T23:26:34.650Z,-11226.72
2022-12-09T23:29:42.479Z,-11224.59
2022-12-09T23:32:49.408Z,-11215.03
2022-12-09T23:35:55.825Z,-11218.00
2022-12-09T23:39:03.125Z,-11216.59
2022-12-09T23:42:09.292Z,-11222.91
2022-12-09T23:45:17.241Z,-11213.50
2022-12-09T23:48:23.429Z,-11222.34
2022-12-09T23:51:31.317Z,-11218.13
2022-12-09T23:54:37.887Z,-11212.22
2022-12-09T23:57:43.919Z,-11216.16
